Time;durP1;ratioP1;P1;durP2;ratioP2;P2;SDS_P1;SDS_P2;PMS_P1;PMS_P2;Temp;Humidity;BMP_temperature;BMP_pressure;BME280_temperature;BME280_humidity;BME280_pressure;Samples;Min_cycle;Max_cycle;Signal;HPM_P1;HPM_P2
2021/01/02 00:00:44;;;;;;;20.77;11.05;;;5.00;92.70;;;;;;2080794;28;20026;-81
2021/01/02 00:02:18;;;;;;;18.52;10.85;;;5.00;93.00;;;;;;2088766;28;20116;-81
2021/01/02 00:04:09;;;;;;;22.05;11.32;;;5.00;92.80;;;;;;2084932;28;20108;-81
2021/01/02 00:05:11;;;;;;;18.35;9.77;;;4.90;92.70;;;;;;2080243;28;20025;-81
2021/01/02 00:06:20;;;;;;;16.88;10.60;;;4.90;92.70;;;;;;2064211;28;20112;-81
2021/01/02 00:07:52;;;;;;;19.75;10.68;;;4.90;92.70;;;;;;2074314;28;20406;-81
2021/01/02 00:09:03;;;;;;;18.25;9.98;;;4.90;92.70;;;;;;2088511;28;20017;-81
2021/01/02 00:10:04;;;;;;;17.17;9.13;;;4.90;92.70;;;;;;2088345;28;20123;-81
2021/01/02 00:11:28;;;;;;;18.90;10.38;;;4.90;92.70;;;;;;2088510;28;20104;-81
2021/01/02 00:13:00;;;;;;;17.80;9.73;;;5.00;92.70;;;;;;2100232;28;20030;-81
2021/01/02 00:14:06;;;;;;;17.25;9.95;;;4.90;92.70;;;;;;2092739;28;20029;-81
2021/01/02 00:15:10;;;;;;;17.30;9.98;;;4.90;92.70;;;;;;2088858;28;20025;-81
2021/01/02 00:16:44;;;;;;;18.75;10.90;;;4.90;92.70;;;;;;2088740;28;20044;-81
2021/01/02 00:18:11;;;;;;;17.92;10.25;;;5.00;92.70;;;;;;2089136;28;20017;-81
2021/01/02 00:19:51;;;;;;;17.83;9.73;;;5.00;92.70;;;;;;2089078;28;20080;-81
2021/01/02 00:21:35;;;;;;;16.73;9.45;;;5.00;92.70;;;;;;2084749;28;20037;-82
2021/01/02 00:22:49;;;;;;;17.02;9.48;;;4.90;92.70;;;;;;2086107;28;20075;-81
2021/01/02 00:24:00;;;;;;;17.83;10.15;;;4.90;92.70;;;;;;2104739;28;20204;-81
2021/01/02 00:25:09;;;;;;;15.65;9.13;;;4.90;92.70;;;;;;2102867;28;20043;-81
2021/01/02 00:26:22;;;;;;;17.02;9.60;;;4.90;92.70;;;;;;2089612;28;20196;-81
2021/01/02 00:27:43;;;;;;;18.05;10.07;;;4.90;92.70;;;;;;2089279;28;20395;-81
2021/01/02 00:28:46;;;;;;;17.70;10.27;;;4.90;92.70;;;;;;2093283;28;20021;-81
2021/01/02 00:30:05;;;;;;;21.13;11.40;;;4.90;92.80;;;;;;2089374;28;20025;-80
2021/01/02 00:31:18;;;;;;;19.30;10.18;;;4.90;92.70;;;;;;2091441;28;20324;-81
2021/01/02 00:32:49;;;;;;;18.42;10.45;;;4.90;92.70;;;;;;2095792;28;20036;-81
2021/01/02 00:34:29;;;;;;;16.92;9.88;;;4.90;93.00;;;;;;2091125;28;20041;-81
2021/01/02 00:35:30;;;;;;;16.40;8.88;;;4.90;92.70;;;;;;2094972;28;20052;-81
2021/01/02 00:36:38;;;;;;;17.75;10.00;;;4.90;92.70;;;;;;2096462;28;20029;-82
2021/01/02 00:37:41;;;;;;;17.25;10.25;;;4.90;92.70;;;;;;2095745;28;20025;-81
2021/01/02 00:38:42;;;;;;;18.27;10.75;;;4.90;92.70;;;;;;2096224;28;20050;-80
2021/01/02 00:40:05;;;;;;;17.17;11.13;;;4.90;92.70;;;;;;2112717;28;20016;-81
2021/01/02 00:41:06;;;;;;;17.67;10.65;;;4.90;92.70;;;;;;2104418;28;20110;-80
2021/01/02 00:42:10;;;;;;;20.45;11.63;;;4.90;92.70;;;;;;2091141;28;20029;-80
2021/01/02 00:43:13;;;;;;;21.48;11.65;;;4.90;92.70;;;;;;2090966;28;20036;-80
2021/01/02 00:44:14;;;;;;;19.50;11.10;;;4.90;92.70;;;;;;2098955;28;20031;-80
2021/01/02 00:45:17;;;;;;;19.00;10.50;;;4.90;92.70;;;;;;2102690;28;20032;-80
2021/01/02 00:46:18;;;;;;;18.40;10.68;;;4.90;92.70;;;;;;2097767;28;20021;-80
2021/01/02 00:47:20;;;;;;;18.67;10.77;;;4.90;92.80;;;;;;2113641;28;20050;-79
2021/01/02 00:48:24;;;;;;;20.63;10.80;;;4.90;92.80;;;;;;2096590;28;20095;-80
2021/01/02 00:49:29;;;;;;;18.70;10.55;;;4.90;92.80;;;;;;2088738;28;20018;-80
2021/01/02 00:50:30;;;;;;;21.35;11.82;;;4.90;92.80;;;;;;2094364;28;20028;-81
2021/01/02 00:51:36;;;;;;;18.98;11.20;;;4.90;92.80;;;;;;2107297;28;20055;-80
2021/01/02 00:52:45;;;;;;;18.13;11.18;;;4.90;92.80;;;;;;2105819;28;20020;-80
2021/01/02 00:53:51;;;;;;;21.27;12.07;;;4.90;92.80;;;;;;2091048;28;20024;-80
2021/01/02 00:55:00;;;;;;;20.30;11.75;;;4.90;92.80;;;;;;2091010;28;20025;-80
2021/01/02 00:56:19;;;;;;;20.55;12.05;;;4.90;92.80;;;;;;2090994;28;20029;-80
2021/01/02 00:57:40;;;;;;;21.35;11.90;;;4.90;92.80;;;;;;2090617;28;20025;-81
2021/01/02 00:59:05;;;;;;;19.88;11.48;;;4.90;92.80;;;;;;2092278;28;20114;-80
2021/01/02 01:00:09;;;;;;;21.77;12.65;;;4.90;92.80;;;;;;2094529;28;20117;-80
2021/01/02 01:01:19;;;;;;;22.42;12.68;;;4.90;92.80;;;;;;2087772;28;20032;-79
2021/01/02 01:02:22;;;;;;;21.88;12.20;;;4.80;92.80;;;;;;2095011;28;20017;-79
2021/01/02 01:03:52;;;;;;;21.40;11.93;;;4.90;92.80;;;;;;2095253;28;20025;-79
2021/01/02 01:04:56;;;;;;;20.33;11.63;;;4.80;92.80;;;;;;2095425;28;20044;-80
2021/01/02 01:06:03;;;;;;;21.35;12.65;;;4.80;92.80;;;;;;2095034;28;20061;-80
2021/01/02 01:07:08;;;;;;;19.60;12.18;;;4.90;92.80;;;;;;2095357;28;20028;-81
2021/01/02 01:08:08;;;;;;;21.30;12.65;;;4.90;92.80;;;;;;2110969;28;20525;-81
2021/01/02 01:09:14;;;;;;;23.92;14.27;;;4.80;92.70;;;;;;2109833;28;20124;-81
2021/01/02 01:10:20;;;;;;;20.90;12.95;;;4.80;92.70;;;;;;2093192;28;20115;-80
2021/01/02 01:11:24;;;;;;;26.00;15.05;;;4.80;92.80;;;;;;2092842;28;20025;-81
2021/01/02 01:12:28;;;;;;;26.75;14.73;;;4.80;92.80;;;;;;2090974;28;20509;-80
2021/01/02 01:13:29;;;;;;;20.83;13.30;;;4.80;92.80;;;;;;2090120;28;20078;-80
2021/01/02 01:14:30;;;;;;;25.25;14.55;;;4.80;92.80;;;;;;2081853;28;20425;-80
2021/01/02 01:15:32;;;;;;;22.63;13.73;;;4.80;92.80;;;;;;2090147;28;20128;-80
2021/01/02 01:16:40;;;;;;;23.33;13.80;;;4.80;92.80;;;;;;2090785;28;20067;-80
2021/01/02 01:17:53;;;;;;;23.42;14.07;;;4.80;92.80;;;;;;2090169;28;20059;-80
2021/01/02 01:19:04;;;;;;;20.98;12.55;;;4.80;92.80;;;;;;2090222;28;20027;-80
2021/01/02 01:20:12;;;;;;;24.02;14.45;;;4.80;92.80;;;;;;2090473;28;20794;-80
2021/01/02 01:21:15;;;;;;;28.55;16.45;;;4.80;92.80;;;;;;2106222;28;20051;-80
2021/01/02 01:22:19;;;;;;;24.33;14.30;;;4.80;92.80;;;;;;2097930;28;20035;-80
2021/01/02 01:23:49;;;;;;;22.42;13.40;;;4.80;92.80;;;;;;2090067;28;20079;-80
2021/01/02 01:25:02;;;;;;;24.48;13.88;;;4.80;92.80;;;;;;2090546;28;20078;-80
2021/01/02 01:26:12;;;;;;;21.90;13.48;;;4.80;92.80;;;;;;2090525;28;20076;-81
2021/01/02 01:27:38;;;;;;;23.60;14.27;;;4.80;92.80;;;;;;2090790;28;20090;-80
2021/01/02 01:28:42;;;;;;;24.15;14.13;;;4.70;92.80;;;;;;2089896;28;20193;-80
2021/01/02 01:29:49;;;;;;;26.42;14.27;;;4.70;92.80;;;;;;2089667;28;20021;-81
2021/01/02 01:30:54;;;;;;;23.95;14.27;;;4.70;92.80;;;;;;2099261;28;20085;-80
2021/01/02 01:31:58;;;;;;;23.42;13.75;;;4.70;92.80;;;;;;2097622;28;20024;-80
2021/01/02 01:33:00;;;;;;;23.40;14.02;;;4.70;92.80;;;;;;2089705;28;20521;-80
2021/01/02 01:34:08;;;;;;;24.02;13.27;;;4.70;92.80;;;;;;2090471;28;20028;-80
2021/01/02 01:35:11;;;;;;;25.13;14.77;;;4.70;92.80;;;;;;2090594;28;20032;-80
2021/01/02 01:36:20;;;;;;;23.98;14.07;;;4.70;92.80;;;;;;2090609;28;20040;-81
2021/01/02 01:37:24;;;;;;;21.58;13.38;;;4.70;92.80;;;;;;2090585;28;20025;-80
2021/01/02 01:38:27;;;;;;;21.58;13.32;;;4.70;92.80;;;;;;2090434;28;20024;-80
2021/01/02 01:39:30;;;;;;;22.27;14.38;;;4.70;92.90;;;;;;2106312;28;20131;-80
2021/01/02 01:40:32;;;;;;;23.70;14.00;;;4.70;92.80;;;;;;2089524;28;20123;-80
2021/01/02 01:41:34;;;;;;;22.25;13.55;;;4.70;92.90;;;;;;2090187;28;20447;-80
2021/01/02 01:42:40;;;;;;;23.52;14.27;;;4.70;92.90;;;;;;2097877;28;20532;-80
2021/01/02 01:44:10;;;;;;;22.17;14.15;;;4.70;92.90;;;;;;2098774;28;20029;-81
2021/01/02 01:45:57;;;;;;;21.98;12.82;;;4.70;92.90;;;;;;2091232;28;20045;-80
2021/01/02 01:47:11;;;;;;;22.67;12.55;;;4.70;92.80;;;;;;2089508;28;20471;-80
2021/01/02 01:48:18;;;;;;;19.40;12.13;;;4.80;92.80;;;;;;2083341;28;20021;-80
2021/01/02 01:50:11;;;;;;;23.38;13.63;;;4.70;92.80;;;;;;2089808;28;20021;-80
2021/01/02 01:51:17;;;;;;;19.55;11.73;;;4.70;92.80;;;;;;2087948;28;20037;-81
2021/01/02 01:52:42;;;;;;;22.38;13.15;;;4.70;92.80;;;;;;2089540;28;20477;-80
2021/01/02 01:53:42;;;;;;;21.55;12.57;;;4.70;92.80;;;;;;2090359;28;20344;-80
2021/01/02 01:55:05;;;;;;;21.35;13.18;;;4.70;92.70;;;;;;2090323;28;20025;-80
2021/01/02 01:56:24;;;;;;;21.67;12.45;;;4.70;92.80;;;;;;2090162;28;20032;-80
2021/01/02 01:57:26;;;;;;;20.45;12.45;;;4.70;92.80;;;;;;2090462;28;20025;-80
2021/01/02 01:58:40;;;;;;;22.48;13.52;;;4.70;92.80;;;;;;2106273;28;20025;-80
2021/01/02 01:59:56;;;;;;;22.92;13.05;;;4.70;92.80;;;;;;2102741;28;20036;-81
2021/01/02 02:01:02;;;;;;;20.95;12.57;;;4.70;92.80;;;;;;2090195;28;20128;-80
2021/01/02 02:02:15;;;;;;;21.83;13.07;;;4.70;92.80;;;;;;2089666;28;20459;-80
2021/01/02 02:03:27;;;;;;;21.27;12.88;;;4.70;92.80;;;;;;2083092;28;20066;-80
2021/01/02 02:04:55;;;;;;;22.08;13.05;;;4.70;92.80;;;;;;2089786;28;20071;-81
2021/01/02 02:06:22;;;;;;;21.40;12.88;;;4.70;92.80;;;;;;2090286;28;20402;-80
2021/01/02 02:07:39;;;;;;;21.33;12.45;;;4.70;92.80;;;;;;2090171;28;20025;-80
2021/01/02 02:08:50;;;;;;;24.20;13.90;;;4.60;92.80;;;;;;2106053;28;20016;-80
2021/01/02 02:10:00;;;;;;;20.33;12.60;;;4.70;92.80;;;;;;2096425;28;20401;-81
2021/01/02 02:11:05;;;;;;;22.50;13.25;;;4.70;92.80;;;;;;2089841;28;20037;-80
2021/01/02 02:12:15;;;;;;;23.58;14.13;;;4.60;92.70;;;;;;2097876;28;20025;-80
2021/01/02 02:13:19;;;;;;;22.63;13.75;;;4.60;92.80;;;;;;2096852;28;20017;-80
2021/01/02 02:14:58;;;;;;;21.52;12.45;;;4.60;92.70;;;;;;2090172;28;20032;-80
2021/01/02 02:15:59;;;;;;;22.25;13.48;;;4.60;92.80;;;;;;2097327;28;20040;-80
2021/01/02 02:17:04;;;;;;;22.65;13.60;;;4.60;92.80;;;;;;2091611;28;20072;-80
2021/01/02 02:18:07;;;;;;;21.48;12.68;;;4.60;92.80;;;;;;2090141;28;20029;-80
2021/01/02 02:19:33;;;;;;;23.25;13.73;;;4.60;92.80;;;;;;2090066;28;20052;-80
2021/01/02 02:20:35;;;;;;;22.40;13.80;;;4.60;92.80;;;;;;2090041;28;20057;-81
2021/01/02 02:21:43;;;;;;;25.30;14.45;;;4.60;92.80;;;;;;2105888;28;20858;-80
2021/01/02 02:22:44;;;;;;;23.95;14.02;;;4.60;92.70;;;;;;2104392;28;20024;-80
2021/01/02 02:23:51;;;;;;;26.70;14.73;;;4.60;92.70;;;;;;2090118;28;20120;-81
2021/01/02 02:24:54;;;;;;;23.05;14.27;;;4.60;92.80;;;;;;2089430;28;20051;-81
2021/01/02 02:26:29;;;;;;;24.73;15.00;;;4.60;92.80;;;;;;2089588;28;20029;-80
2021/01/02 02:27:30;;;;;;;22.70;13.10;;;4.60;92.80;;;;;;2090254;28;20025;-80
2021/01/02 02:29:01;;;;;;;23.70;14.18;;;4.60;92.80;;;;;;2097509;28;20030;-80
2021/01/02 02:30:10;;;;;;;21.60;14.02;;;4.60;92.80;;;;;;2093903;28;20541;-80
2021/01/02 02:31:11;;;;;;;23.58;14.15;;;4.60;92.70;;;;;;2089367;28;20028;-80
2021/01/02 02:32:17;;;;;;;22.10;13.55;;;4.60;92.80;;;;;;2089429;28;20537;-81
2021/01/02 02:33:24;;;;;;;21.67;13.80;;;4.60;92.80;;;;;;2089997;28;20021;-80
2021/01/02 02:34:24;;;;;;;22.38;13.13;;;4.60;92.80;;;;;;2090180;28;20484;-80
2021/01/02 02:35:25;;;;;;;20.92;13.48;;;4.60;92.80;;;;;;2090114;28;20040;-80
2021/01/02 02:36:30;;;;;;;22.55;14.48;;;4.60;92.80;;;;;;2106043;28;20031;-80
2021/01/02 02:37:31;;;;;;;22.67;13.95;;;4.60;92.80;;;;;;2104696;28;20039;-80
2021/01/02 02:38:36;;;;;;;24.95;14.50;;;4.60;92.80;;;;;;2105896;28;20043;-80
2021/01/02 02:39:37;;;;;;;28.58;16.15;;;4.60;92.80;;;;;;2104365;28;20032;-80
2021/01/02 02:40:37;;;;;;;25.45;15.07;;;4.60;92.80;;;;;;2089414;28;20567;-81
2021/01/02 02:41:46;;;;;;;24.83;14.45;;;4.50;92.70;;;;;;2081197;28;20030;-80
2021/01/02 02:42:54;;;;;;;24.00;14.93;;;4.60;92.80;;;;;;2082286;28;20021;-80
2021/01/02 02:43:59;;;;;;;25.40;15.82;;;4.50;92.70;;;;;;2090261;28;20483;-80
2021/01/02 02:45:01;;;;;;;23.40;14.93;;;4.50;92.80;;;;;;2089319;28;20025;-80
2021/01/02 02:46:03;;;;;;;26.95;17.08;;;4.50;92.80;;;;;;2089172;28;20090;-80
2021/01/02 02:47:06;;;;;;;23.60;15.32;;;4.50;92.80;;;;;;2097580;28;20094;-80
2021/01/02 02:48:13;;;;;;;24.70;15.35;;;4.50;92.80;;;;;;2089214;28;20546;-80
2021/01/02 02:49:22;;;;;;;26.08;15.20;;;4.50;92.80;;;;;;2089452;28;20449;-80
2021/01/02 02:50:26;;;;;;;22.67;15.13;;;4.50;92.80;;;;;;2089263;28;20060;-80
2021/01/02 02:51:31;;;;;;;22.63;14.25;;;4.50;92.80;;;;;;2081373;28;20379;-80
2021/01/02 02:52:38;;;;;;;24.17;14.80;;;4.50;92.80;;;;;;2089251;28;20074;-80
2021/01/02 02:53:39;;;;;;;21.38;13.65;;;4.50;92.80;;;;;;2089752;28;20364;-80
2021/01/02 02:54:41;;;;;;;20.58;13.65;;;4.50;92.80;;;;;;2097084;28;20032;-80
2021/01/02 02:55:43;;;;;;;20.13;12.85;;;4.50;92.80;;;;;;2094259;28;20496;-80
2021/01/02 02:56:43;;;;;;;21.98;13.70;;;4.60;93.10;;;;;;2085853;28;20024;-80
2021/01/02 02:57:48;;;;;;;22.02;13.63;;;4.50;92.80;;;;;;2088543;28;20021;-80
2021/01/02 02:58:49;;;;;;;19.70;13.25;;;4.60;92.80;;;;;;2088955;28;20466;-80
2021/01/02 02:59:50;;;;;;;20.10;13.30;;;4.60;92.80;;;;;;2089191;28;20123;-80
2021/01/02 03:00:50;;;;;;;21.77;13.80;;;4.60;92.80;;;;;;2097461;28;20476;-80
2021/01/02 03:01:51;;;;;;;18.92;12.63;;;4.60;92.80;;;;;;2081030;28;20510;-80
2021/01/02 03:02:51;;;;;;;20.88;13.50;;;4.60;92.80;;;;;;2088554;28;20053;-80
2021/01/02 03:03:54;;;;;;;22.13;14.43;;;4.60;92.80;;;;;;2089068;28;20032;-81
2021/01/02 03:04:54;;;;;;;21.27;14.00;;;4.60;92.80;;;;;;2080999;28;20056;-80
2021/01/02 03:05:56;;;;;;;22.05;14.00;;;4.60;92.80;;;;;;2089062;28;20033;-80
2021/01/02 03:06:58;;;;;;;20.40;12.88;;;4.60;92.80;;;;;;2088896;28;20127;-80
2021/01/02 03:07:59;;;;;;;21.90;13.60;;;4.60;92.80;;;;;;2080969;28;20034;-80
2021/01/02 03:08:59;;;;;;;20.08;12.63;;;4.60;92.80;;;;;;2089220;28;20361;-81
2021/01/02 03:10:00;;;;;;;20.83;13.60;;;4.60;92.80;;;;;;2088904;28;20048;-80
2021/01/02 03:11:02;;;;;;;21.95;13.43;;;4.60;92.80;;;;;;2089027;28;20534;-80
2021/01/02 03:12:03;;;;;;;21.75;12.82;;;4.60;92.80;;;;;;2089754;28;20540;-80
2021/01/02 03:13:04;;;;;;;21.25;13.73;;;4.60;92.80;;;;;;2089734;28;20491;-80
2021/01/02 03:14:05;;;;;;;22.92;14.57;;;4.60;92.80;;;;;;2105554;28;20024;-80
2021/01/02 03:15:06;;;;;;;24.55;15.27;;;4.60;93.00;;;;;;2089127;28;20060;-80
2021/01/02 03:16:07;;;;;;;22.58;14.98;;;4.60;92.70;;;;;;2081022;28;20065;-81
2021/01/02 03:17:07;;;;;;;23.48;14.45;;;4.60;92.70;;;;;;2097424;28;20029;-80
2021/01/02 03:18:12;;;;;;;21.08;13.68;;;4.50;92.70;;;;;;2089019;28;20118;-80
2021/01/02 03:19:12;;;;;;;21.50;14.27;;;4.50;92.70;;;;;;2088943;28;20029;-80
2021/01/02 03:20:14;;;;;;;22.70;13.98;;;4.50;92.80;;;;;;2105623;28;20123;-80
2021/01/02 03:21:15;;;;;;;23.92;14.68;;;4.60;92.80;;;;;;2105294;28;20042;-81
2021/01/02 03:22:15;;;;;;;23.05;14.50;;;4.50;93.00;;;;;;2097120;28;20525;-81
2021/01/02 03:23:16;;;;;;;22.98;15.07;;;4.50;92.80;;;;;;2097463;28;20032;-80
2021/01/02 03:24:18;;;;;;;23.30;14.75;;;4.50;92.70;;;;;;2105509;28;20559;-80
2021/01/02 03:25:18;;;;;;;24.83;15.52;;;4.50;92.80;;;;;;2097334;28;20475;-80
2021/01/02 03:26:19;;;;;;;28.05;16.10;;;4.60;92.80;;;;;;2080818;28;20021;-81
2021/01/02 03:27:21;;;;;;;23.77;14.55;;;4.50;92.70;;;;;;2097403;28;20021;-81
2021/01/02 03:28:22;;;;;;;22.73;14.48;;;4.50;92.70;;;;;;2088741;28;20033;-81
2021/01/02 03:29:22;;;;;;;21.23;13.80;;;4.50;92.80;;;;;;2072890;28;20076;-81
2021/01/02 03:30:26;;;;;;;23.20;14.60;;;4.60;92.80;;;;;;2089053;28;20321;-80
2021/01/02 03:31:26;;;;;;;20.13;13.82;;;4.50;92.80;;;;;;2089665;28;20017;-80
2021/01/02 03:32:27;;;;;;;19.75;13.25;;;4.50;92.70;;;;;;2089708;28;20116;-80
2021/01/02 03:33:31;;;;;;;22.65;13.82;;;4.50;92.80;;;;;;2105613;28;20035;-80
2021/01/02 03:34:36;;;;;;;20.45;12.60;;;4.50;92.70;;;;;;2096644;28;20506;-80
2021/01/02 03:35:37;;;;;;;21.00;13.65;;;4.50;92.70;;;;;;2097946;28;20038;-80
2021/01/02 03:36:37;;;;;;;20.17;12.50;;;4.50;92.70;;;;;;2097252;28;20522;-80
2021/01/02 03:37:40;;;;;;;20.40;13.10;;;4.50;92.80;;;;;;2080583;28;20030;-80
2021/01/02 03:38:53;;;;;;;20.17;13.07;;;4.50;92.70;;;;;;2097417;28;20048;-80
2021/01/02 03:39:54;;;;;;;19.95;12.55;;;4.50;92.80;;;;;;2095512;28;20094;-80
2021/01/02 03:40:54;;;;;;;21.05;13.43;;;4.50;92.80;;;;;;2097263;28;20028;-81
2021/01/02 03:41:55;;;;;;;19.40;12.85;;;4.50;92.80;;;;;;2105554;28;20024;-81
2021/01/02 03:42:55;;;;;;;19.88;13.18;;;4.50;92.70;;;;;;2088815;28;20113;-80
2021/01/02 03:43:56;;;;;;;20.10;13.07;;;4.50;93.00;;;;;;2080695;28;20033;-81
2021/01/02 03:44:57;;;;;;;20.95;13.35;;;4.60;92.80;;;;;;2072475;28;20463;-80
2021/01/02 03:45:57;;;;;;;19.90;13.35;;;4.60;92.80;;;;;;2088978;28;20075;-80
2021/01/02 03:46:58;;;;;;;19.85;12.98;;;4.60;92.70;;;;;;2097161;28;20443;-81
2021/01/02 03:47:59;;;;;;;20.85;12.98;;;4.60;92.70;;;;;;2088886;28;20061;-80
2021/01/02 03:48:59;;;;;;;22.38;14.02;;;4.60;92.70;;;;;;2080415;28;20030;-80
2021/01/02 03:50:00;;;;;;;20.70;13.35;;;4.60;92.70;;;;;;2088939;28;20041;-80
2021/01/02 03:51:01;;;;;;;22.48;14.18;;;4.60;92.70;;;;;;2089541;28;20100;-81
2021/01/02 03:52:03;;;;;;;22.55;14.10;;;4.60;92.70;;;;;;2088935;28;20027;-80
2021/01/02 03:53:04;;;;;;;20.85;13.77;;;4.60;92.70;;;;;;2088921;28;20026;-80
2021/01/02 03:54:04;;;;;;;20.38;13.07;;;4.50;92.70;;;;;;2089444;28;20124;-80
2021/01/02 03:55:07;;;;;;;22.88;14.75;;;4.50;92.70;;;;;;2097129;28;20156;-80
2021/01/02 03:56:08;;;;;;;21.42;13.40;;;4.50;92.70;;;;;;2096905;28;20058;-80
2021/01/02 03:57:08;;;;;;;21.73;13.93;;;4.50;92.70;;;;;;2088851;28;20475;-80
2021/01/02 03:58:09;;;;;;;20.60;13.25;;;4.50;92.70;;;;;;2080688;28;20040;-80
2021/01/02 03:59:09;;;;;;;20.55;13.70;;;4.50;92.70;;;;;;2088732;28;20578;-80
2021/01/02 04:00:12;;;;;;;21.02;13.43;;;4.50;92.70;;;;;;2088749;28;20041;-81
2021/01/02 04:01:13;;;;;;;22.38;13.30;;;4.50;92.70;;;;;;2080850;28;20089;-80
2021/01/02 04:02:13;;;;;;;20.88;13.10;;;4.50;92.70;;;;;;2089059;28;20471;-80
2021/01/02 04:03:14;;;;;;;21.27;13.68;;;4.50;92.70;;;;;;2097126;28;20085;-80
2021/01/02 04:04:15;;;;;;;20.23;13.88;;;4.50;92.70;;;;;;2088741;28;20025;-80
2021/01/02 04:05:15;;;;;;;21.55;14.35;;;4.50;92.70;;;;;;2088589;28;20032;-80
2021/01/02 04:06:24;;;;;;;22.10;14.35;;;4.50;92.70;;;;;;2082340;28;20045;-80
2021/01/02 04:07:25;;;;;;;23.55;14.77;;;4.50;92.70;;;;;;2073452;28;20018;-81
2021/01/02 04:08:25;;;;;;;25.83;14.80;;;4.50;92.70;;;;;;2072290;28;20034;-80
2021/01/02 04:09:26;;;;;;;22.65;14.80;;;4.50;92.70;;;;;;2072457;28;20064;-80
2021/01/02 04:10:27;;;;;;;21.85;14.07;;;4.50;92.70;;;;;;2056293;28;20405;-80
2021/01/02 04:11:27;;;;;;;26.92;15.73;;;4.40;92.70;;;;;;2064399;28;20026;-80
2021/01/02 04:12:28;;;;;;;22.15;14.43;;;4.40;92.70;;;;;;2064411;28;20400;-80
2021/01/02 04:13:28;;;;;;;22.00;13.98;;;4.40;92.70;;;;;;2072575;28;20200;-80
2021/01/02 04:14:29;;;;;;;24.13;15.50;;;4.40;92.70;;;;;;2081369;28;20029;-81
2021/01/02 04:15:29;;;;;;;22.50;14.52;;;4.40;92.70;;;;;;2082951;28;20776;-80
2021/01/02 04:16:33;;;;;;;21.50;14.05;;;4.40;92.70;;;;;;2082868;28;20029;-80
2021/01/02 04:17:34;;;;;;;21.73;13.68;;;4.40;92.70;;;;;;2082993;28;20061;-80
2021/01/02 04:18:35;;;;;;;20.40;13.85;;;4.40;92.70;;;;;;2090367;28;20084;-80
2021/01/02 04:19:36;;;;;;;22.75;14.48;;;4.40;92.70;;;;;;2081924;28;20492;-80
2021/01/02 04:20:36;;;;;;;24.27;15.48;;;4.40;92.70;;;;;;2082248;28;20116;-81
2021/01/02 04:21:37;;;;;;;25.98;16.92;;;4.40;92.70;;;;;;2073962;28;20535;-80
2021/01/02 04:22:38;;;;;;;28.63;16.98;;;4.40;92.70;;;;;;2074044;28;20505;-80
2021/01/02 04:23:39;;;;;;;24.10;16.60;;;4.40;92.60;;;;;;2082915;28;20089;-80
2021/01/02 04:24:39;;;;;;;24.48;15.38;;;4.40;92.60;;;;;;2090226;28;20044;-80
2021/01/02 04:25:41;;;;;;;25.48;16.75;;;4.40;92.60;;;;;;2090489;28;20090;-80
2021/01/02 04:26:41;;;;;;;25.88;17.30;;;4.30;92.60;;;;;;2090368;28;20025;-80
2021/01/02 04:27:42;;;;;;;23.65;15.55;;;4.30;92.60;;;;;;2082121;28;20079;-80
2021/01/02 04:28:43;;;;;;;23.52;15.30;;;4.40;92.70;;;;;;2082195;28;20021;-81
2021/01/02 04:29:43;;;;;;;23.75;16.13;;;4.30;92.60;;;;;;2090236;28;20029;-80
2021/01/02 04:30:44;;;;;;;25.42;16.40;;;4.30;92.60;;;;;;2082227;28;20052;-81
2021/01/02 04:31:45;;;;;;;24.48;16.30;;;4.30;92.60;;;;;;2081881;28;20039;-80
2021/01/02 04:32:46;;;;;;;24.30;15.90;;;4.30;92.60;;;;;;2082138;28;20049;-80
2021/01/02 04:33:48;;;;;;;25.85;16.02;;;4.30;92.70;;;;;;2074169;28;20033;-80
2021/01/02 04:34:48;;;;;;;22.75;15.48;;;4.30;92.70;;;;;;2073761;28;20033;-80
2021/01/02 04:35:49;;;;;;;21.88;15.02;;;4.30;92.70;;;;;;2082024;28;20032;-80
2021/01/02 04:36:50;;;;;;;21.65;14.77;;;4.30;92.70;;;;;;2090298;28;20127;-80
2021/01/02 04:37:51;;;;;;;22.27;14.45;;;4.30;92.70;;;;;;2082776;28;20131;-80
2021/01/02 04:38:51;;;;;;;19.95;14.02;;;4.30;92.70;;;;;;2081910;28;20179;-80
2021/01/02 04:39:52;;;;;;;22.77;14.85;;;4.40;92.70;;;;;;2081949;28;20053;-80
2021/01/02 04:40:57;;;;;;;23.85;14.50;;;4.40;92.70;;;;;;2082655;28;20120;-80
2021/01/02 04:41:58;;;;;;;21.98;14.75;;;4.30;92.70;;;;;;2098517;28;20025;-80
2021/01/02 04:42:59;;;;;;;23.67;15.30;;;4.40;92.70;;;;;;2098564;28;20025;-80
2021/01/02 04:44:00;;;;;;;23.20;15.05;;;4.40;92.70;;;;;;2082034;28;20034;-80
2021/01/02 04:45:02;;;;;;;22.38;14.35;;;4.30;92.60;;;;;;2090233;28;20096;-81
2021/01/02 04:46:03;;;;;;;23.30;15.05;;;4.40;92.60;;;;;;2098217;28;20025;-80
2021/01/02 04:47:03;;;;;;;23.08;14.98;;;4.40;92.60;;;;;;2090148;28;20025;-80
2021/01/02 04:48:06;;;;;;;25.02;16.55;;;4.40;92.60;;;;;;2090284;28;20053;-81
2021/01/02 04:49:09;;;;;;;25.67;17.50;;;4.40;92.60;;;;;;2090033;28;20139;-80
2021/01/02 04:50:10;;;;;;;24.23;15.05;;;4.40;92.60;;;;;;2082868;28;20029;-80
2021/01/02 04:51:13;;;;;;;24.80;15.88;;;4.40;92.60;;;;;;2098566;28;20028;-80
2021/01/02 04:52:16;;;;;;;23.83;15.90;;;4.40;92.60;;;;;;2098272;28;20059;-81
2021/01/02 04:53:19;;;;;;;25.65;16.23;;;4.40;92.60;;;;;;2089754;28;20024;-80
2021/01/02 04:54:22;;;;;;;23.90;16.27;;;4.30;92.60;;;;;;2090082;28;20431;-80
2021/01/02 04:55:27;;;;;;;24.65;16.05;;;4.40;92.60;;;;;;2089481;28;20111;-80
2021/01/02 04:56:32;;;;;;;23.77;15.60;;;4.40;92.60;;;;;;2083485;28;20462;-80
2021/01/02 04:57:36;;;;;;;25.08;15.77;;;4.40;92.60;;;;;;2089538;28;20022;-79
2021/01/02 04:58:41;;;;;;;25.05;15.98;;;4.30;92.60;;;;;;2089369;28;20026;-80
2021/01/02 04:59:51;;;;;;;24.27;15.30;;;4.30;92.60;;;;;;2089480;28;20036;-80
2021/01/02 05:00:54;;;;;;;23.48;15.40;;;4.30;92.60;;;;;;2105784;28;20017;-80
2021/01/02 05:01:58;;;;;;;21.42;15.30;;;4.30;92.60;;;;;;2105113;28;20159;-79
2021/01/02 05:03:00;;;;;;;25.15;15.63;;;4.30;92.60;;;;;;2104849;28;20048;-80
2021/01/02 05:04:00;;;;;;;25.58;16.30;;;4.40;92.60;;;;;;2098217;28;20066;-80
2021/01/02 05:05:06;;;;;;;27.13;16.67;;;4.30;92.50;;;;;;2087463;28;20126;-80
2021/01/02 05:06:06;;;;;;;23.13;16.40;;;4.30;92.50;;;;;;2081818;28;20028;-80
2021/01/02 05:07:07;;;;;;;24.35;15.82;;;4.30;92.50;;;;;;2083857;28;20036;-80
2021/01/02 05:08:08;;;;;;;24.88;16.52;;;4.30;92.60;;;;;;2105352;28;20071;-79
2021/01/02 05:09:08;;;;;;;27.67;17.52;;;4.30;92.60;;;;;;2088999;28;20028;-80
2021/01/02 05:10:10;;;;;;;25.55;16.73;;;4.30;92.50;;;;;;2081305;28;20115;-80
2021/01/02 05:11:10;;;;;;;28.15;17.40;;;4.30;92.60;;;;;;2088800;28;20053;-80
2021/01/02 05:12:30;;;;;;;26.15;17.17;;;4.30;92.60;;;;;;2097171;28;20082;-80
2021/01/02 05:13:38;;;;;;;25.83;16.83;;;4.30;92.60;;;;;;2093407;28;20036;-81
2021/01/02 05:14:57;;;;;;;25.77;16.85;;;4.30;92.60;;;;;;2098183;28;20107;-80
2021/01/02 05:16:31;;;;;;;25.63;16.48;;;4.30;92.60;;;;;;2093706;28;20096;-80
2021/01/02 05:17:32;;;;;;;24.80;16.05;;;4.30;92.50;;;;;;2090077;28;20029;-81
2021/01/02 05:18:32;;;;;;;23.08;15.50;;;4.20;92.50;;;;;;2090159;28;20045;-80
2021/01/02 05:19:33;;;;;;;22.38;15.00;;;4.30;92.60;;;;;;2081563;28;20124;-80
2021/01/02 05:20:33;;;;;;;24.58;16.02;;;4.30;92.60;;;;;;2073665;28;20128;-80
2021/01/02 05:21:36;;;;;;;24.67;15.63;;;4.30;92.60;;;;;;2081437;28;20510;-80
2021/01/02 05:22:38;;;;;;;25.60;15.45;;;4.30;92.60;;;;;;2090000;28;20049;-80
2021/01/02 05:23:39;;;;;;;24.00;15.88;;;4.30;92.60;;;;;;2098361;28;20021;-80
2021/01/02 05:24:40;;;;;;;24.10;16.15;;;4.30;92.60;;;;;;2089882;28;20498;-80
2021/01/02 05:25:40;;;;;;;26.05;16.75;;;4.30;92.60;;;;;;2090014;28;20041;-80
2021/01/02 05:26:58;;;;;;;22.45;15.60;;;4.30;92.60;;;;;;2081484;28;20103;-80
2021/01/02 05:27:59;;;;;;;25.40;16.30;;;4.30;92.60;;;;;;2076239;28;20030;-80
2021/01/02 05:29:19;;;;;;;27.65;17.75;;;4.30;92.50;;;;;;2105083;28;20025;-79
2021/01/02 05:30:27;;;;;;;25.15;16.63;;;4.30;92.50;;;;;;2094143;28;20199;-79
2021/01/02 05:31:28;;;;;;;24.77;16.27;;;4.30;92.50;;;;;;2088259;28;20028;-79
2021/01/02 05:32:29;;;;;;;26.05;16.67;;;4.20;92.50;;;;;;2096086;28;20422;-80
2021/01/02 05:33:30;;;;;;;27.20;16.38;;;4.30;92.50;;;;;;2095404;28;20029;-80
2021/01/02 05:34:32;;;;;;;24.15;16.23;;;4.30;92.50;;;;;;2093138;28;20120;-80
2021/01/02 05:35:34;;;;;;;23.95;16.42;;;4.30;92.50;;;;;;2097950;28;20036;-80
2021/01/02 05:36:36;;;;;;;23.75;16.25;;;4.30;92.50;;;;;;2098342;28;20058;-80
2021/01/02 05:37:37;;;;;;;26.55;16.23;;;4.30;92.50;;;;;;2089953;28;20040;-80
2021/01/02 05:38:39;;;;;;;26.17;17.35;;;4.30;92.50;;;;;;2090054;28;20449;-80
2021/01/02 05:39:49;;;;;;;25.05;16.58;;;4.20;92.50;;;;;;2081348;28;20037;-80
2021/01/02 05:40:55;;;;;;;28.75;18.15;;;4.20;92.50;;;;;;2074750;28;20030;-80
2021/01/02 05:41:55;;;;;;;31.98;19.08;;;4.20;92.50;;;;;;2091669;28;20066;-80